Accueil
METAR-TAF:

METAR-TAF

Aéroports :

Statesboro-Bulloch County Airport

Statesboro, Géorgie, États-Unis

latitude: 32-28-59N, longitude: 081-44-14W, altitude: 57 m

Observation

Le bulletin a été fait il y a 26 minutes, à 12:35 UTC
Vent calme
Température 15°C
Humidité 72%
Pression 1015 hPa
Visibilité: 16.1 km
Ciel clair

METAR: KTBR 041235Z AUTO 00000KT 10SM CLR 15/10 A2997 RMK AO2 T01450098

Heure: 09:01 (13:01 UTC)


TAF: absent

Observations et prévisions météorologiques de plus de 4000 aéroports (messages METAR et TAF).

Les stations disponibles sont représentées par des disques jaunes et rouges sur la carte.

Passer la souris dessus pour voir le nom de la station.

Cliquer dessus pour voir les observations et prévisions météorologiques.

Pour changer de carte: cliquez sur les boutons verts avec une croix noire pour zoomer, sur le bouton vert avec un tiret pour effectuer un zoom arrière, ou sur les flèches vertes pour les cartes adjacentes.


METAR-TAF: